EDT,Max TemperatureF,Mean TemperatureF,Min TemperatureF,Max Dew PointF,MeanDew PointF,Min DewpointF,Max Humidity, Mean Humidity, Min Humidity, Max Sea Level PressureIn, Mean Sea Level PressureIn, Min Sea Level PressureIn, Max VisibilityMiles, Mean VisibilityMiles, Min VisibilityMiles, Max Wind SpeedMPH, Mean Wind SpeedMPH, Max Gust SpeedMPH,PrecipitationIn, CloudCover, Events, WindDirDegrees
2013-10-1,74,67,59,61,58,55,90,76,61,30.06,30.01,29.98,10,8,4,12,6,15,0.00,4,,211
2013-10-2,72,63,54,64,59,53,93,73,53,30.11,30.05,29.99,10,8,5,17,7,22,0.00,4,,241
2013-10-3,76,65,53,65,58,47,93,79,64,30.11,30.05,30.00,10,7,0,13,4,17,0.58,5,Fog-Rain,144
2013-10-4,76,71,66,65,64,62,87,78,68,30.07,30.03,30.00,10,10,8,15,6,21,0.01,5,Rain,225
2013-10-5,75,69,63,66,64,61,100,85,69,30.07,30.02,29.96,10,6,0,14,4,17,0.70,5,Fog-Rain,82
2013-10-6,82,73,63,67,64,61,93,74,54,29.96,29.83,29.69,10,9,2,26,11,35,0.01,4,Rain,187
2013-10-7,63,57,51,63,50,39,93,72,51,30.11,29.81,29.71,10,8,2,24,12,35,0.92,8,Rain,229
2013-10-8,64,56,48,49,44,39,86,63,40,30.32,30.26,30.12,10,10,10,10,5,14,0.00,2,,147
2013-10-9,69,60,50,49,43,39,77,57,37,30.37,30.31,30.26,10,10,10,16,9,23,0.00,0,,127
2013-10-10,65,54,43,50,42,36,77,60,43,30.28,30.21,30.13,10,10,10,16,6,21,0.00,0,,86
2013-10-11,69,58,47,52,44,40,89,64,39,30.15,30.12,30.09,10,10,10,16,5,20,0.00,1,,78
2013-10-12,72,60,48,56,50,42,83,70,57,30.15,30.12,30.09,10,10,10,17,5,23,0.00,1,,103
2013-10-13,71,65,59,61,56,49,93,75,56,30.30,30.24,30.14,10,6,1,20,9,26,0.20,7,Rain,227
2013-10-14,61,54,46,51,44,39,80,63,46,30.37,30.33,30.28,10,10,7,15,7,20,0.00,3,,26
2013-10-15,69,58,46,58,52,41,89,76,63,30.27,30.10,29.91,10,10,9,20,6,25,0.00,4,,140
2013-10-16,69,64,58,61,56,46,90,77,64,29.91,29.86,29.77,10,8,2,23,12,29,0.53,7,Rain,215
2013-10-17,63,56,49,52,48,44,93,73,52,29.90,29.83,29.74,10,8,2,22,9,30,0.31,6,Rain,213
2013-10-18,62,55,48,46,43,37,86,63,39,29.95,29.89,29.80,10,10,4,21,12,30,0.03,7,Rain,222
2013-10-19,55,49,43,47,43,39,93,76,59,29.90,29.78,29.70,10,7,2,20,10,25,0.61,6,Rain,224
2013-10-20,58,50,41,40,38,34,89,65,40,29.98,29.92,29.85,10,8,2,21,11,28,0.60,6,Rain-Thunderstorm,203
2013-10-21,65,58,51,52,40,35,89,62,34,29.97,29.89,29.81,10,10,9,24,15,33,0.08,4,Rain,211
2013-10-22,51,47,43,47,36,29,86,68,49,29.91,29.86,29.80,10,9,2,23,10,39,0.21,8,Rain,253
2013-10-23,47,43,38,40,35,23,92,67,41,29.88,29.80,29.76,10,9,2,23,9,30,0.28,8,Rain,229
2013-10-24,45,40,35,36,33,32,92,81,70,30.09,29.97,29.87,10,9,2,20,12,25,0.31,8,Rain-Snow,212
2013-10-25,49,45,40,36,34,29,85,69,53,30.27,30.19,30.08,10,10,6,18,13,26,0.03,7,Rain,274
2013-10-26,47,43,39,37,28,24,86,68,49,30.16,29.94,29.84,10,10,3,31,18,40,0.19,7,Rain,212
2013-10-27,48,44,40,35,32,29,76,61,46,30.08,30.02,29.92,10,10,10,17,10,25,0.00,6,,255
2013-10-28,53,46,38,40,35,29,79,68,57,30.37,30.24,30.08,10,10,10,20,8,25,0.00,4,,86
2013-10-29,52,42,32,36,31,26,85,64,42,30.44,30.38,30.28,10,10,10,12,4,15,0.00,3,,72
2013-10-30,62,50,37,45,37,32,82,62,42,30.25,30.18,30.06,10,8,1,13,4,17,0.00,2,,127
2013-10-31,67,61,54,57,55,46,87,78,68,30.03,29.76,29.31,10,8,2,33,19,45,0.61,7,Rain-Thunderstorm,182